Flight Track Log - Related Links

Times and Time Zones

All times are in EDT time to prevent confusion due to time zone crossing. See the ASQ5874 flight status page for this flight to view local times or setup timezone preferences in your user account.

Time Position Orientation Groundspeed Altitude Reporting Facility
EDT Latitude Longitude Course Direction KTS MPH feet Rate Location/Type
Sat 12:46:07 PM 35.8967 -78.7767 256° West 163 188 1,100  Level Washington Center
Sat 12:46:56 PM 35.9347 -78.7550 25° Northeast 189 217 2,400 1,927 Climbing Washington Center
Sat 12:47:56 PM 35.9883 -78.7828 337° Northwest 244 281 4,600 1,985 Climbing Washington Center
Sat 12:49:00 PM 36.1295 -79.1165 261° West  Level Estimated
Sat 12:49:12 PM 35.9878 -78.8778 270° West 252 290 6,900  Level Washington Center
Sat 12:50:00 PM 36.1923 -79.1991 256° West  Level Estimated
Sat 12:50:13 PM 35.9564 -78.9639 246° West 258 297 9,000  Level Washington Center
Sat 12:51:00 PM 36.2551 -79.2818 256° West  Level Estimated
Sat 12:51:11 PM 35.9222 -79.0572 246° West 278 320 10,400  Level Washington Center
Sat 12:52:43 PM 35.8581 -79.2372 246° West 319 367 11,600 1,026 Climbing Atlanta Center
Sat 12:53:43 PM 35.8331 -79.3514 255° West 365 420 13,000 1,400 Climbing Atlanta Center
Sat 12:54:43 PM 35.8233 -79.4750 264° West 371 427 14,400 1,300 Climbing Atlanta Center
Sat 12:55:43 PM 35.8031 -79.6042 259° West 382 440 15,600 1,200 Climbing Atlanta Center
Sat 12:56:43 PM 35.7808 -79.7436 259° West 382 440 16,800 1,150 Climbing Atlanta Center
Sat 12:57:43 PM 35.7581 -79.8700 258° West 382 440 17,900 950 Climbing Atlanta Center
Sat 12:58:43 PM 35.7353 -79.9992 258° West 382 440 18,700 950 Climbing Atlanta Center
Sat 12:59:43 PM 35.7161 -80.1178 259° West 388 447 19,800 1,100 Climbing Atlanta Center
Sat 01:00:43 PM 35.6931 -80.2494 258° West 393 452 20,900 1,100 Climbing Atlanta Center
Sat 01:01:43 PM 35.6681 -80.3858 257° West 408 470 22,000 1,100 Climbing Atlanta Center
Sat 01:02:43 PM 35.6697 -80.5111 271° West 390 449 23,100 1,150 Climbing Atlanta Center
Sat 01:03:43 PM 35.7206 -80.6164 301° West 352 405 24,300 1,150 Climbing Atlanta Center
Sat 01:04:43 PM 35.7758 -80.7267 302° West 363 418 25,400 1,100 Climbing Atlanta Center
Sat 01:05:43 PM 35.8267 -80.8322 301° West 368 423 26,500 1,150 Climbing Atlanta Center
Sat 01:06:43 PM 35.8772 -80.9403 300° West 368 423 27,700 1,150 Climbing Atlanta Center
Sat 01:07:43 PM 35.9300 -81.0461 302° West 368 423 28,800 1,100 Climbing Atlanta Center
Sat 01:08:43 PM 35.9825 -81.1519 302° West 368 423 29,900 1,150 Climbing Atlanta Center
Sat 01:09:43 PM 36.0331 -81.2581 301° West 368 423 31,100 1,150 Climbing Atlanta Center
Sat 01:10:43 PM 36.0792 -81.3642 298° West 362 417 32,200 1,100 Climbing Atlanta Center
Sat 01:11:43 PM 36.1294 -81.4656 302° West 352 405 33,300 1,050 Climbing Atlanta Center
Sat 01:12:43 PM 36.1817 -81.5794 300° West 346 398 34,300 850 Climbing Atlanta Center
Sat 01:13:43 PM 36.2317 -81.6861 300° West 346 398 35,000 350 Climbing Atlanta Center
Sat 01:14:43 PM 36.2819 -81.7981 299° West 352 405 35,000  Level Atlanta Center
Sat 01:15:43 PM 36.3525 -81.8939 312° West 368 423 35,000  Level Atlanta Center
Sat 01:16:43 PM 36.4331 -81.9744 321° Northwest 368 423 35,000  Level Atlanta Center
Sat 01:17:43 PM 36.5178 -82.0600 321° Northwest 385 443 35,000  Level Atlanta Center
Sat 01:18:43 PM 36.6025 -82.1458 321° Northwest 391 450 35,000  Level Atlanta Center
Sat 01:19:58 PM 36.7003 -82.2447 321° Northwest 397 457 35,000  Level Indianapolis Center
Sat 01:21:00 PM 36.7861 -82.3322 321° Northwest 399 459 35,000  Level Indianapolis Center
Sat 01:22:01 PM 36.8853 -82.4331 321° Northwest 396 456 35,000  Level Indianapolis Center
Sat 01:23:03 PM 36.9692 -82.5197 320° Northwest 393 452 35,000  Level Indianapolis Center
Sat 01:24:04 PM 37.0531 -82.6067 320° Northwest 394 453 35,000 49 Level Indianapolis Center
Sat 01:25:06 PM 37.1375 -82.6936 321° Northwest 396 456 35,100 439 Climbing Indianapolis Center
Sat 01:26:07 PM 37.2203 -82.7803 320° Northwest 393 452 35,900 443 Climbing Indianapolis Center
Sat 01:27:08 PM 37.3158 -82.8811 320° Northwest 386 444 36,000 49 Climbing Indianapolis Center
Sat 01:28:10 PM 37.3983 -82.9675 320° Northwest 386 444 36,000 -439 Level Indianapolis Center
Sat 01:29:11 PM 37.4808 -83.0539 320° Northwest 387 445 35,100 -488 Descending Indianapolis Center
Sat 01:30:13 PM 37.5636 -83.1411 320° Northwest 387 445 35,000 -49 Descending Indianapolis Center
Sat 01:31:14 PM 37.6478 -83.2292 320° Northwest 389 448 35,000  Level Indianapolis Center
Sat 01:32:16 PM 37.7322 -83.3194 320° Northwest 396 456 35,000  Level Indianapolis Center
Sat 01:33:17 PM 37.8169 -83.4094 320° Northwest 396 456 35,000  Level Indianapolis Center
Sat 01:34:19 PM 37.9014 -83.5006 320° Northwest 398 458 35,000  Level Indianapolis Center
Sat 01:35:20 PM 37.9994 -83.6044 320° Northwest 395 455 35,000  Level Indianapolis Center
Sat 01:36:22 PM 38.0836 -83.6958 319° Northwest 396 456 35,000  Level Indianapolis Center
Sat 01:37:23 PM 38.1692 -83.7847 321° Northwest 397 457 35,000  Level Indianapolis Center
Sat 01:38:25 PM 38.2636 -83.8581 329° Northwest 395 455 35,000  Level Indianapolis Center
Sat 01:39:26 PM 38.3564 -83.9303 329° Northwest 393 452 35,000  Level Indianapolis Center
Sat 01:40:28 PM 38.4497 -84.0050 328° Northwest 394 453 35,000  Level Indianapolis Center
Sat 01:41:29 PM 38.5433 -84.0786 328° Northwest 396 456 35,000  Level Indianapolis Center
Sat 01:42:30 PM 38.6364 -84.1536 328° Northwest 395 455 35,000  Level Indianapolis Center
Sat 01:43:32 PM 38.7458 -84.2406 328° Northwest 396 456 35,000  Level Indianapolis Center
Sat 01:44:33 PM 38.8394 -84.3158 328° Northwest 396 456 35,000  Level Indianapolis Center
Sat 01:45:35 PM 38.9331 -84.3911 328° Northwest 396 456 35,000 -98 Level Indianapolis Center
Sat 01:46:36 PM 39.0275 -84.4686 327° Northwest 401 461 34,800 -585 Descending Indianapolis Center
Sat 01:47:38 PM 39.1161 -84.5394 328° Northwest 397 457 33,800 -976 Descending Indianapolis Center
Sat 01:48:39 PM 39.2083 -84.6122 329° Northwest 393 452 32,800 -1,122 Descending Indianapolis Center
Sat 01:49:41 PM 39.3031 -84.6900 328° Northwest 401 461 31,500 -1,610 Descending Indianapolis Center
Sat 01:50:42 PM 39.4211 -84.7864 328° Northwest 417 480 29,500 -1,610 Descending Indianapolis Center
Sat 01:51:44 PM 39.5253 -84.8703 328° Northwest 436 502 28,200 -732 Descending Indianapolis Center
Sat 01:52:45 PM 39.6297 -84.9572 327° Northwest 445 512 28,000 -98 Descending Indianapolis Center
Sat 01:53:47 PM 39.7344 -85.0433 328° Northwest 449 517 28,000  Level Indianapolis Center
Sat 01:54:48 PM 39.8394 -85.1297 328° Northwest 450 518 28,000 -439 Level Indianapolis Center
Sat 01:55:50 PM 39.9436 -85.2172 327° Northwest 448 516 27,100 -927 Descending Indianapolis Center
Sat 01:56:51 PM 40.0503 -85.3050 328° Northwest 455 524 26,100 -537 Descending Indianapolis Center
Sat 01:57:53 PM 40.1786 -85.4131 327° Northwest 459 528 26,000 -49 Descending Indianapolis Center
Sat 01:58:54 PM 40.2836 -85.5017 327° Northwest 457 526 26,000 -98 Level Indianapolis Center
Sat 01:59:56 PM 40.3881 -85.5894 327° Northwest 452 520 25,800 -585 Descending Indianapolis Center
Sat 02:00:57 PM 40.4928 -85.6764 328° Northwest 451 519 24,800 -857 Descending Indianapolis Center
Sat 02:02:02 PM 40.6217 -85.7717 331° Northwest 454 522 24,000 -520 Descending Chicago Center
Sat 02:03:04 PM 40.6878 -85.8992 304° West 448 516 23,700 -435 Descending Chicago Center
Sat 02:04:06 PM 40.7572 -86.0286 305° West 437 503 23,100 -341 Descending Chicago Center
Sat 02:05:07 PM 40.8258 -86.1569 305° West 429 494 23,000 -49 Descending Chicago Center
Sat 02:06:09 PM 40.8947 -86.2892 305° West 433 498 23,000  Level Chicago Center
Sat 02:07:11 PM 40.9653 -86.4214 305° West 439 505 23,000 -484 Level Chicago Center
Sat 02:08:13 PM 41.0486 -86.5806 305° West 437 503 22,000 -968 Descending Chicago Center
Sat 02:09:15 PM 41.1147 -86.7119 304° West 432 497 21,000 -1,403 Descending Chicago Center
Sat 02:10:17 PM 41.1869 -86.8431 306° West 432 497 19,100 -1,805 Descending Chicago Center
Sat 02:11:18 PM 41.2492 -86.9672 304° West 418 481 17,300 -1,610 Descending Chicago Center
Sat 02:12:20 PM 41.3128 -87.0900 305° West 410 472 15,800 -1,597 Descending Chicago Center
Sat 02:13:22 PM 41.3775 -87.2075 306° West 401 461 14,000 -2,081 Descending Chicago Center
Sat 02:14:24 PM 41.4717 -87.3214 318° Northwest 388 447 11,500 -1,452 Descending Chicago Center
Sat 02:15:26 PM 41.5481 -87.4078 320° Northwest 373 429 11,000 -195 Descending Chicago Center
Sat 02:16:27 PM 41.6247 -87.4922 321° Northwest 364 419 11,100 49 Climbing Chicago Center
Sat 02:17:29 PM 41.7031 -87.5806 320° Northwest 370 426 11,100 -387 Level Chicago Center
Sat 02:18:31 PM 41.7711 -87.6589 319° Northwest 332 382 10,300 -1,113 Descending Chicago Center
Sat 02:19:33 PM 41.8558 -87.7033 339° North 298 343 8,800 -1,357 Descending Chicago Center
Sat 02:20:26 PM 41.9167 -87.7000 North 267 307 7,700 -1,009 Descending Chicago TRACON
Sat 02:21:20 PM 41.9833 -87.7000 360° North 265 305 7,000 -842 Descending Chicago TRACON
Sat 02:22:20 PM 42.0500 -87.6667 20° North 258 297 6,100 -1,150 Descending Chicago TRACON
Sat 02:23:20 PM 42.1167 -87.6500 11° North 263 303 4,700 -1,091 Descending Chicago TRACON
Sat 02:24:21 PM 42.1500 -87.7167 304° West 222 255 3,900 -756 Descending Chicago TRACON
Sat 02:25:27 PM 42.1000 -87.7833 225° Southwest 203 234 3,100 -800 Descending Chicago TRACON
Sat 02:26:21 PM 42.0667 -87.8167 217° Southwest 175 201 2,300 -789 Descending Chicago TRACON
Sat 02:27:21 PM 42.0333 -87.8500 217° Southwest 129 148 1,600 -700 Descending Chicago TRACON
Sat 02:28:21 PM 42.0000 -87.8833 217° Southwest 121 139 900 -700 Descending Chicago TRACON

Login

Don't have an account? Register now (free) for customized features, flight alerts, and more!